sensor_id;sensor_type;location;lat;lon;timestamp;pressure;altitude;pressure_sealevel;temperature;humidity
43125;BME280;49182;50.788;7.318;2023-02-23T00:01:24;100487.09;;;9.16;100.00
43125;BME280;49182;50.788;7.318;2023-02-23T00:03:53;100502.97;;;9.25;100.00
43125;BME280;49182;50.788;7.318;2023-02-23T00:06:20;100492.75;;;9.11;100.00
43125;BME280;49182;50.788;7.318;2023-02-23T00:08:46;100500.97;;;9.18;100.00
43125;BME280;49182;50.788;7.318;2023-02-23T00:11:14;100512.34;;;9.18;100.00
43125;BME280;49182;50.788;7.318;2023-02-23T00:13:45;100505.88;;;9.22;100.00
43125;BME280;49182;50.788;7.318;2023-02-23T00:16:13;100502.38;;;9.22;100.00
43125;BME280;49182;50.788;7.318;2023-02-23T00:18:42;100502.25;;;9.23;100.00
43125;BME280;49182;50.788;7.318;2023-02-23T00:21:11;100501.31;;;9.24;100.00
43125;BME280;49182;50.788;7.318;2023-02-23T00:23:37;100424.00;;;8.73;100.00
43125;BME280;49182;50.788;7.318;2023-02-23T00:26:04;100498.66;;;9.24;100.00
43125;BME280;49182;50.788;7.318;2023-02-23T00:28:31;100491.72;;;9.23;100.00
43125;BME280;49182;50.788;7.318;2023-02-23T00:31:02;100487.69;;;9.19;100.00
43125;BME280;49182;50.788;7.318;2023-02-23T00:33:28;100470.53;;;9.04;100.00
43125;BME280;49182;50.788;7.318;2023-02-23T00:35:55;100497.38;;;9.19;100.00
43125;BME280;49182;50.788;7.318;2023-02-23T00:38:22;100495.59;;;9.19;100.00
43125;BME280;49182;50.788;7.318;2023-02-23T00:40:48;100499.19;;;9.18;100.00
43125;BME280;49182;50.788;7.318;2023-02-23T00:43:15;100493.19;;;9.16;100.00
43125;BME280;49182;50.788;7.318;2023-02-23T00:45:42;100477.34;;;9.07;100.00
43125;BME280;49182;50.788;7.318;2023-02-23T00:48:10;100490.44;;;9.18;100.00
43125;BME280;49182;50.788;7.318;2023-02-23T00:50:37;100481.94;;;9.14;100.00
43125;BME280;49182;50.788;7.318;2023-02-23T00:53:04;100496.41;;;9.20;100.00
43125;BME280;49182;50.788;7.318;2023-02-23T00:55:31;100478.13;;;9.18;100.00
43125;BME280;49182;50.788;7.318;2023-02-23T00:57:57;100485.69;;;9.12;100.00
43125;BME280;49182;50.788;7.318;2023-02-23T01:00:24;100433.78;;;8.82;100.00
43125;BME280;49182;50.788;7.318;2023-02-23T01:02:50;100464.69;;;9.01;100.00
43125;BME280;49182;50.788;7.318;2023-02-23T01:05:19;100491.81;;;9.12;100.00
43125;BME280;49182;50.788;7.318;2023-02-23T01:07:46;100478.31;;;9.06;100.00
43125;BME280;49182;50.788;7.318;2023-02-23T01:10:13;100482.34;;;9.10;100.00
43125;BME280;49182;50.788;7.318;2023-02-23T01:12:40;100486.78;;;9.09;100.00
43125;BME280;49182;50.788;7.318;2023-02-23T01:15:08;100470.91;;;9.00;100.00
43125;BME280;49182;50.788;7.318;2023-02-23T01:17:35;100490.84;;;9.13;100.00
43125;BME280;49182;50.788;7.318;2023-02-23T01:20:01;100492.63;;;9.13;100.00
43125;BME280;49182;50.788;7.318;2023-02-23T01:22:31;100491.91;;;9.11;100.00
43125;BME280;49182;50.788;7.318;2023-02-23T01:24:58;100486.09;;;9.07;100.00
43125;BME280;49182;50.788;7.318;2023-02-23T01:27:24;100488.00;;;9.05;100.00
43125;BME280;49182;50.788;7.318;2023-02-23T01:29:52;100447.19;;;8.79;100.00
43125;BME280;49182;50.788;7.318;2023-02-23T01:32:19;100487.03;;;9.06;100.00
43125;BME280;49182;50.788;7.318;2023-02-23T01:34:46;100469.34;;;8.97;100.00
43125;BME280;49182;50.788;7.318;2023-02-23T01:37:13;100487.03;;;9.06;100.00
43125;BME280;49182;50.788;7.318;2023-02-23T01:39:40;100489.69;;;9.06;100.00
43125;BME280;49182;50.788;7.318;2023-02-23T01:42:11;100483.56;;;9.06;100.00
43125;BME280;49182;50.788;7.318;2023-02-23T01:47:41;100483.44;;;9.07;100.00
43125;BME280;49182;50.788;7.318;2023-02-23T01:50:08;100463.53;;;8.93;100.00
43125;BME280;49182;50.788;7.318;2023-02-23T01:52:36;100427.25;;;8.76;100.00
43125;BME280;49182;50.788;7.318;2023-02-23T01:55:05;100477.91;;;9.10;100.00
43125;BME280;49182;50.788;7.318;2023-02-23T01:57:32;100472.75;;;9.09;100.00
43125;BME280;49182;50.788;7.318;2023-02-23T01:59:58;100473.88;;;9.06;100.00
43125;BME280;49182;50.788;7.318;2023-02-23T02:02:27;100473.16;;;9.04;100.00
43125;BME280;49182;50.788;7.318;2023-02-23T02:04:57;100466.22;;;9.03;100.00
43125;BME280;49182;50.788;7.318;2023-02-23T02:07:28;100473.28;;;9.03;100.00
43125;BME280;49182;50.788;7.318;2023-02-23T02:09:57;100434.63;;;8.82;100.00
43125;BME280;49182;50.788;7.318;2023-02-23T02:12:25;100456.41;;;9.05;100.00
43125;BME280;49182;50.788;7.318;2023-02-23T02:14:52;100442.19;;;8.97;100.00
43125;BME280;49182;50.788;7.318;2023-02-23T02:17:30;100455.22;;;8.98;100.00
43125;BME280;49182;50.788;7.318;2023-02-23T02:20:32;100462.88;;;9.01;100.00
43125;BME280;49182;50.788;7.318;2023-02-23T02:26:33;100461.34;;;8.99;100.00
43125;BME280;49182;50.788;7.318;2023-02-23T02:29:26;100456.19;;;8.97;100.00
43125;BME280;49182;50.788;7.318;2023-02-23T02:32:30;100439.63;;;8.85;100.00
43125;BME280;49182;50.788;7.318;2023-02-23T02:35:22;100451.44;;;8.91;100.00
43125;BME280;49182;50.788;7.318;2023-02-23T02:38:05;100447.13;;;8.90;100.00
43125;BME280;49182;50.788;7.318;2023-02-23T02:40:41;100443.97;;;8.96;100.00
43125;BME280;49182;50.788;7.318;2023-02-23T02:43:15;100443.41;;;8.92;100.00
43125;BME280;49182;50.788;7.318;2023-02-23T02:45:49;100449.84;;;9.00;100.00
43125;BME280;49182;50.788;7.318;2023-02-23T02:48:26;100449.00;;;8.99;100.00
43125;BME280;49182;50.788;7.318;2023-02-23T02:50:59;100442.06;;;8.98;100.00
43125;BME280;49182;50.788;7.318;2023-02-23T02:53:38;100441.78;;;9.01;100.00
43125;BME280;49182;50.788;7.318;2023-02-23T02:56:07;100441.78;;;9.01;100.00
43125;BME280;49182;50.788;7.318;2023-02-23T02:58:36;100419.13;;;8.89;100.00
43125;BME280;49182;50.788;7.318;2023-02-23T03:01:11;100439.56;;;8.97;100.00
43125;BME280;49182;50.788;7.318;2023-02-23T03:03:38;100442.00;;;8.88;100.00
43125;BME280;49182;50.788;7.318;2023-02-23T03:06:05;100443.66;;;8.89;100.00
43125;BME280;49182;50.788;7.318;2023-02-23T03:08:36;100447.00;;;8.91;100.00
43125;BME280;49182;50.788;7.318;2023-02-23T03:11:06;100433.00;;;8.91;100.00
43125;BME280;49182;50.788;7.318;2023-02-23T03:13:40;100447.00;;;8.91;100.00
43125;BME280;49182;50.788;7.318;2023-02-23T03:16:18;100436.75;;;8.88;100.00
43125;BME280;49182;50.788;7.318;2023-02-23T03:18:57;100439.94;;;8.92;100.00
43125;BME280;49182;50.788;7.318;2023-02-23T03:21:33;100434.69;;;8.92;100.00
43125;BME280;49182;50.788;7.318;2023-02-23T03:24:07;100435.75;;;8.89;100.00
43125;BME280;49182;50.788;7.318;2023-02-23T03:26:41;100448.28;;;8.97;100.00
43125;BME280;49182;50.788;7.318;2023-02-23T03:29:15;100432.50;;;8.97;100.00
43125;BME280;49182;50.788;7.318;2023-02-23T03:31:48;100439.56;;;8.97;100.00
43125;BME280;49182;50.788;7.318;2023-02-23T03:34:19;100442.06;;;8.98;100.00
43125;BME280;49182;50.788;7.318;2023-02-23T03:36:54;100439.56;;;8.97;100.00
43125;BME280;49182;50.788;7.318;2023-02-23T03:39:31;100437.03;;;8.95;100.00
43125;BME280;49182;50.788;7.318;2023-02-23T03:42:03;100438.88;;;8.95;100.00
43125;BME280;49182;50.788;7.318;2023-02-23T03:44:33;100440.91;;;8.91;100.00
43125;BME280;49182;50.788;7.318;2023-02-23T03:47:02;100447.13;;;8.90;100.00
43125;BME280;49182;50.788;7.318;2023-02-23T03:49:33;100442.47;;;8.93;100.00
43125;BME280;49182;50.788;7.318;2023-02-23T03:52:06;100435.75;;;8.89;100.00
43125;BME280;49182;50.788;7.318;2023-02-23T03:54:39;100418.13;;;8.80;100.00
43125;BME280;49182;50.788;7.318;2023-02-23T03:57:08;100447.34;;;8.98;100.00
43125;BME280;49182;50.788;7.318;2023-02-23T03:59:39;100447.72;;;8.93;100.00
43125;BME280;49182;50.788;7.318;2023-02-23T04:02:09;100427.59;;;8.72;100.00
43125;BME280;49182;50.788;7.318;2023-02-23T04:04:38;100448.09;;;8.89;100.00
43125;BME280;49182;50.788;7.318;2023-02-23T04:07:05;100455.28;;;8.87;100.00
43125;BME280;49182;50.788;7.318;2023-02-23T04:09:33;100446.94;;;8.82;100.00
43125;BME280;49182;50.788;7.318;2023-02-23T04:12:06;100461.25;;;8.89;100.00
43125;BME280;49182;50.788;7.318;2023-02-23T04:14:37;100435.59;;;8.81;100.00
43125;BME280;49182;50.788;7.318;2023-02-23T04:17:06;100455.19;;;8.88;100.00
43125;BME280;49182;50.788;7.318;2023-02-23T04:19:34;100455.75;;;8.92;100.00
43125;BME280;49182;50.788;7.318;2023-02-23T04:22:01;100456.06;;;8.99;100.00
43125;BME280;49182;50.788;7.318;2023-02-23T04:24:27;100458.00;;;8.97;100.00
43125;BME280;49182;50.788;7.318;2023-02-23T04:26:54;100465.19;;;8.95;100.00
43125;BME280;49182;50.788;7.318;2023-02-23T04:29:22;100458.00;;;8.97;100.00
43125;BME280;49182;50.788;7.318;2023-02-23T04:31:49;100452.41;;;8.90;100.00
43125;BME280;49182;50.788;7.318;2023-02-23T04:34:15;100462.28;;;8.98;100.00
43125;BME280;49182;50.788;7.318;2023-02-23T04:36:42;100455.63;;;8.93;100.00
43125;BME280;49182;50.788;7.318;2023-02-23T04:39:09;100468.13;;;9.01;100.00
43125;BME280;49182;50.788;7.318;2023-02-23T04:41:35;100473.41;;;9.01;100.00
43125;BME280;49182;50.788;7.318;2023-02-23T04:44:02;100468.97;;;9.02;100.00
43125;BME280;49182;50.788;7.318;2023-02-23T04:46:30;100455.47;;;8.95;100.00
43125;BME280;49182;50.788;7.318;2023-02-23T04:48:57;100437.09;;;8.84;100.00
43125;BME280;49182;50.788;7.318;2023-02-23T04:51:23;100464.81;;;8.99;100.00
43125;BME280;49182;50.788;7.318;2023-02-23T04:53:50;100470.63;;;9.03;100.00
43125;BME280;49182;50.788;7.318;2023-02-23T04:56:17;100467.16;;;9.02;100.00
43125;BME280;49182;50.788;7.318;2023-02-23T04:58:43;100458.59;;;9.00;100.00
43125;BME280;49182;50.788;7.318;2023-02-23T05:01:10;100436.53;;;8.80;100.00
43125;BME280;49182;50.788;7.318;2023-02-23T05:03:38;100468.13;;;9.01;100.00
43125;BME280;49182;50.788;7.318;2023-02-23T05:06:05;100448.81;;;8.91;100.00
43125;BME280;49182;50.788;7.318;2023-02-23T05:08:31;100323.53;;;8.15;100.00
43125;BME280;49182;50.788;7.318;2023-02-23T05:10:58;100463.69;;;9.02;100.00
43125;BME280;49182;50.788;7.318;2023-02-23T05:13:24;100473.28;;;9.03;100.00
43125;BME280;49182;50.788;7.318;2023-02-23T05:15:55;100470.91;;;9.00;100.00
43125;BME280;49182;50.788;7.318;2023-02-23T05:18:22;100477.59;;;9.04;100.00
43125;BME280;49182;50.788;7.318;2023-02-23T05:20:50;100482.53;;;8.97;100.00
43125;BME280;49182;50.788;7.318;2023-02-23T05:23:17;100470.00;;;8.89;100.00
43125;BME280;49182;50.788;7.318;2023-02-23T05:25:44;100484.91;;;9.00;100.00
43125;BME280;49182;50.788;7.318;2023-02-23T05:28:11;100478.09;;;8.98;100.00
43125;BME280;49182;50.788;7.318;2023-02-23T05:30:37;100489.91;;;9.03;100.00
43125;BME280;49182;50.788;7.318;2023-02-23T05:33:04;100486.19;;;9.06;100.00
43125;BME280;49182;50.788;7.318;2023-02-23T05:35:30;100490.13;;;9.11;100.00
43125;BME280;49182;50.788;7.318;2023-02-23T05:37:58;100487.88;;;9.07;100.00
43125;BME280;49182;50.788;7.318;2023-02-23T05:40:25;100493.00;;;9.08;100.00
43125;BME280;49182;50.788;7.318;2023-02-23T05:42:57;100489.28;;;9.11;100.00
43125;BME280;49182;50.788;7.318;2023-02-23T05:45:24;100482.84;;;9.04;100.00
43125;BME280;49182;50.788;7.318;2023-02-23T05:47:51;100491.81;;;9.12;100.00
43125;BME280;49182;50.788;7.318;2023-02-23T05:50:17;100466.00;;;8.95;100.00
43125;BME280;49182;50.788;7.318;2023-02-23T05:52:44;100505.66;;;9.14;100.00
43125;BME280;49182;50.788;7.318;2023-02-23T05:55:12;100506.50;;;9.15;100.00
43125;BME280;49182;50.788;7.318;2023-02-23T05:57:38;100505.41;;;9.17;100.00
43125;BME280;49182;50.788;7.318;2023-02-23T06:00:06;100498.91;;;9.21;100.00
43125;BME280;49182;50.788;7.318;2023-02-23T06:02:34;100493.53;;;9.23;100.00
43125;BME280;49182;50.788;7.318;2023-02-23T06:05:00;100495.44;;;9.21;100.00
43125;BME280;49182;50.788;7.318;2023-02-23T06:07:27;100502.66;;;9.19;100.00
43125;BME280;49182;50.788;7.318;2023-02-23T06:09:53;100500.72;;;9.21;100.00
43125;BME280;49182;50.788;7.318;2023-02-23T06:12:21;100500.72;;;9.21;100.00
43125;BME280;49182;50.788;7.318;2023-02-23T06:14:48;100504.78;;;9.25;100.00
43125;BME280;49182;50.788;7.318;2023-02-23T06:17:15;100514.22;;;9.27;100.00
43125;BME280;49182;50.788;7.318;2023-02-23T06:19:41;100500.97;;;9.18;100.00
43125;BME280;49182;50.788;7.318;2023-02-23T06:22:08;100506.81;;;9.21;100.00
43125;BME280;49182;50.788;7.318;2023-02-23T06:24:35;100515.31;;;9.25;100.00
43125;BME280;49182;50.788;7.318;2023-02-23T06:27:01;100519.75;;;9.24;100.00
43125;BME280;49182;50.788;7.318;2023-02-23T06:29:29;100524.75;;;9.27;100.00
43125;BME280;49182;50.788;7.318;2023-02-23T06:31:56;100519.16;;;9.21;100.00
43125;BME280;49182;50.788;7.318;2023-02-23T06:34:26;100531.56;;;9.30;100.00
43125;BME280;49182;50.788;7.318;2023-02-23T06:36:53;100525.47;;;9.29;100.00
43125;BME280;49182;50.788;7.318;2023-02-23T06:39:20;100534.09;;;9.31;100.00
43125;BME280;49182;50.788;7.318;2023-02-23T06:41:47;100533.38;;;9.29;100.00
43125;BME280;49182;50.788;7.318;2023-02-23T06:44:13;100538.38;;;9.32;100.00
43125;BME280;49182;50.788;7.318;2023-02-23T06:46:41;100536.56;;;9.33;100.00
43125;BME280;49182;50.788;7.318;2023-02-23T06:49:09;100540.88;;;9.34;100.00
43125;BME280;49182;50.788;7.318;2023-02-23T06:51:37;100548.06;;;9.32;100.00
43125;BME280;49182;50.788;7.318;2023-02-23T06:54:03;100545.44;;;9.32;100.00
43125;BME280;49182;50.788;7.318;2023-02-23T06:56:30;100551.28;;;9.36;100.00
43125;BME280;49182;50.788;7.318;2023-02-23T06:58:57;100551.28;;;9.36;100.00
43125;BME280;49182;50.788;7.318;2023-02-23T07:01:24;100553.66;;;9.39;100.00
43125;BME280;49182;50.788;7.318;2023-02-23T07:03:53;100537.09;;;9.27;100.00
43125;BME280;49182;50.788;7.318;2023-02-23T07:06:19;100565.63;;;9.43;100.00
43125;BME280;49182;50.788;7.318;2023-02-23T07:08:46;100537.22;;;9.25;100.00
43125;BME280;49182;50.788;7.318;2023-02-23T07:11:14;100570.47;;;9.38;100.00
43125;BME280;49182;50.788;7.318;2023-02-23T07:13:41;100575.47;;;9.41;100.00
43125;BME280;49182;50.788;7.318;2023-02-23T07:16:07;100581.44;;;9.43;100.00
43125;BME280;49182;50.788;7.318;2023-02-23T07:18:34;100574.50;;;9.42;100.00
43125;BME280;49182;50.788;7.318;2023-02-23T07:21:02;100584.66;;;9.46;100.00
43125;BME280;49182;50.788;7.318;2023-02-23T07:23:29;100582.84;;;9.47;100.00
43125;BME280;49182;50.788;7.318;2023-02-23T07:25:55;100590.38;;;9.51;100.00
43125;BME280;49182;50.788;7.318;2023-02-23T07:28:22;100593.84;;;9.52;100.00
43125;BME280;49182;50.788;7.318;2023-02-23T07:30:48;100596.34;;;9.53;100.00
43125;BME280;49182;50.788;7.318;2023-02-23T07:33:15;100600.78;;;9.53;100.00
43125;BME280;49182;50.788;7.318;2023-02-23T07:35:42;100604.25;;;9.53;100.00
43125;BME280;49182;50.788;7.318;2023-02-23T07:38:10;100606.78;;;9.55;100.00
43125;BME280;49182;50.788;7.318;2023-02-23T07:40:36;100601.38;;;9.56;100.00
43125;BME280;49182;50.788;7.318;2023-02-23T07:43:03;100590.19;;;9.43;100.00
43125;BME280;49182;50.788;7.318;2023-02-23T07:45:30;100594.22;;;9.47;100.00
43125;BME280;49182;50.788;7.318;2023-02-23T07:47:56;100609.28;;;9.56;100.00
43125;BME280;49182;50.788;7.318;2023-02-23T07:50:23;100590.75;;;9.47;100.00
43125;BME280;49182;50.788;7.318;2023-02-23T07:52:50;100607.22;;;9.60;100.00
43125;BME280;49182;50.788;7.318;2023-02-23T07:55:18;100599.84;;;9.54;100.00
43125;BME280;49182;50.788;7.318;2023-02-23T07:57:45;100612.38;;;9.61;100.00
43125;BME280;49182;50.788;7.318;2023-02-23T08:00:12;100603.44;;;9.53;100.00
43125;BME280;49182;50.788;7.318;2023-02-23T08:02:39;100596.69;;;9.60;100.00
43125;BME280;49182;50.788;7.318;2023-02-23T08:05:06;100613.22;;;9.62;100.00
43125;BME280;49182;50.788;7.318;2023-02-23T08:07:33;100607.94;;;9.62;100.00
43125;BME280;49182;50.788;7.318;2023-02-23T08:10:00;100594.00;;;9.50;100.00
43125;BME280;49182;50.788;7.318;2023-02-23T08:12:28;100619.19;;;9.64;100.00
43125;BME280;49182;50.788;7.318;2023-02-23T08:14:54;100619.91;;;9.66;100.00
43125;BME280;49182;50.788;7.318;2023-02-23T08:17:21;100613.91;;;9.64;100.00
43125;BME280;49182;50.788;7.318;2023-02-23T08:19:47;100621.31;;;9.70;100.00
43125;BME280;49182;50.788;7.318;2023-02-23T08:22:14;100630.88;;;9.71;100.00
43125;BME280;49182;50.788;7.318;2023-02-23T08:24:41;100637.00;;;9.71;100.00
43125;BME280;49182;50.788;7.318;2023-02-23T08:27:07;100632.56;;;9.72;100.00
43125;BME280;49182;50.788;7.318;2023-02-23T08:29:35;100641.19;;;9.74;100.00
43125;BME280;49182;50.788;7.318;2023-02-23T08:32:02;100614.19;;;9.61;100.00
43125;BME280;49182;50.788;7.318;2023-02-23T08:34:30;100639.25;;;9.76;100.00
43125;BME280;49182;50.788;7.318;2023-02-23T08:36:56;100644.41;;;9.78;100.00
43125;BME280;49182;50.788;7.318;2023-02-23T08:39:23;100640.91;;;9.77;100.00
43125;BME280;49182;50.788;7.318;2023-02-23T08:41:49;100638.41;;;9.75;100.00
43125;BME280;49182;50.788;7.318;2023-02-23T08:44:16;100639.97;;;9.78;100.00
43125;BME280;49182;50.788;7.318;2023-02-23T08:46:44;100645.13;;;9.80;100.00
43125;BME280;49182;50.788;7.318;2023-02-23T08:49:11;100635.75;;;9.75;100.00
43125;BME280;49182;50.788;7.318;2023-02-23T08:51:37;100641.50;;;9.81;100.00
43125;BME280;49182;50.788;7.318;2023-02-23T08:54:04;100643.31;;;9.80;100.00
43125;BME280;49182;50.788;7.318;2023-02-23T08:56:31;100640.16;;;9.86;100.00
43125;BME280;49182;50.788;7.318;2023-02-23T08:58:57;100647.13;;;9.87;100.00
43125;BME280;49182;50.788;7.318;2023-02-23T09:01:24;100643.47;;;9.88;100.00
43125;BME280;49182;50.788;7.318;2023-02-23T09:03:52;100648.41;;;9.93;100.00
43125;BME280;49182;50.788;7.318;2023-02-23T09:06:21;100652.38;;;9.87;100.00
43125;BME280;49182;50.788;7.318;2023-02-23T09:08:48;100640.84;;;9.88;100.00
43125;BME280;49182;50.788;7.318;2023-02-23T09:11:15;100654.03;;;9.88;100.00
43125;BME280;49182;50.788;7.318;2023-02-23T09:13:42;100649.59;;;9.89;100.00
43125;BME280;49182;50.788;7.318;2023-02-23T09:16:08;100655.47;;;9.92;100.00
43125;BME280;49182;50.788;7.318;2023-02-23T09:18:35;100660.16;;;9.89;100.00
43125;BME280;49182;50.788;7.318;2023-02-23T09:21:05;100658.09;;;9.92;100.00
43125;BME280;49182;50.788;7.318;2023-02-23T09:23:32;100658.22;;;9.91;100.00
43125;BME280;49182;50.788;7.318;2023-02-23T09:26:01;100658.22;;;9.91;100.00
43125;BME280;49182;50.788;7.318;2023-02-23T09:28:28;100676.75;;;10.00;100.00
43125;BME280;49182;50.788;7.318;2023-02-23T09:30:56;100675.78;;;10.01;100.00
43125;BME280;49182;50.788;7.318;2023-02-23T09:33:23;100670.44;;;9.92;100.00
43125;BME280;49182;50.788;7.318;2023-02-23T09:35:49;100672.31;;;10.01;100.00
43125;BME280;49182;50.788;7.318;2023-02-23T09:38:17;100672.31;;;10.01;100.00
43125;BME280;49182;50.788;7.318;2023-02-23T09:40:46;100663.81;;;9.97;100.00
43125;BME280;49182;50.788;7.318;2023-02-23T09:43:14;100685.81;;;10.07;100.00
43125;BME280;49182;50.788;7.318;2023-02-23T09:45:47;100685.81;;;10.07;100.00
43125;BME280;49182;50.788;7.318;2023-02-23T09:48:16;100680.53;;;10.07;100.00
43125;BME280;49182;50.788;7.318;2023-02-23T09:50:47;100685.50;;;10.01;100.00
43125;BME280;49182;50.788;7.318;2023-02-23T09:53:25;100682.00;;;10.00;100.00
43125;BME280;49182;50.788;7.318;2023-02-23T09:55:54;100689.09;;;10.00;100.00
43125;BME280;49182;50.788;7.318;2023-02-23T09:58:24;100673.09;;;9.92;100.00
43125;BME280;49182;50.788;7.318;2023-02-23T10:01:04;100692.31;;;10.03;100.00
43125;BME280;49182;50.788;7.318;2023-02-23T10:03:37;100695.47;;;9.97;99.88
43125;BME280;49182;50.788;7.318;2023-02-23T10:06:08;100681.00;;;9.92;99.75
43125;BME280;49182;50.788;7.318;2023-02-23T10:08:43;100695.09;;;10.02;99.43
43125;BME280;49182;50.788;7.318;2023-02-23T10:11:23;100654.88;;;9.68;98.34
43125;BME280;49182;50.788;7.318;2023-02-23T10:13:59;100697.66;;;9.92;98.98
43125;BME280;49182;50.788;7.318;2023-02-23T10:16:36;100692.41;;;9.92;98.38
43125;BME280;49182;50.788;7.318;2023-02-23T10:19:12;100689.31;;;9.87;98.76
43125;BME280;49182;50.788;7.318;2023-02-23T10:21:45;100703.00;;;10.02;98.72
43125;BME280;49182;50.788;7.318;2023-02-23T10:24:21;100708.72;;;10.07;98.94
43125;BME280;49182;50.788;7.318;2023-02-23T10:26:53;100694.13;;;10.03;98.72
43125;BME280;49182;50.788;7.318;2023-02-23T10:29:25;100711.19;;;10.20;98.30
43125;BME280;49182;50.788;7.318;2023-02-23T10:31:55;100704.03;;;10.10;98.49
43125;BME280;49182;50.788;7.318;2023-02-23T10:34:24;100711.69;;;10.13;98.30
43125;BME280;49182;50.788;7.318;2023-02-23T10:36:56;100709.66;;;10.17;98.08
43125;BME280;49182;50.788;7.318;2023-02-23T10:39:25;100707.59;;;10.21;97.98
43125;BME280;49182;50.788;7.318;2023-02-23T10:41:53;100705.59;;;10.34;97.88
43125;BME280;49182;50.788;7.318;2023-02-23T10:44:21;100712.66;;;10.33;97.29
43125;BME280;49182;50.788;7.318;2023-02-23T10:46:52;100712.66;;;10.33;96.86
43125;BME280;49182;50.788;7.318;2023-02-23T10:49:24;100716.88;;;10.36;96.07
43125;BME280;49182;50.788;7.318;2023-02-23T10:51:53;100717.56;;;10.38;96.44
43125;BME280;49182;50.788;7.318;2023-02-23T10:54:41;100722.31;;;10.44;96.69
43125;BME280;49182;50.788;7.318;2023-02-23T10:57:10;100712.59;;;10.44;95.63
43125;BME280;49182;50.788;7.318;2023-02-23T10:59:37;100717.34;;;10.50;96.18
43125;BME280;49182;50.788;7.318;2023-02-23T11:02:15;100718.06;;;10.52;96.44
43125;BME280;49182;50.788;7.318;2023-02-23T11:04:52;100730.84;;;10.57;96.27
43125;BME280;49182;50.788;7.318;2023-02-23T11:07:22;100712.47;;;10.46;95.79
43125;BME280;49182;50.788;7.318;2023-02-23T11:09:50;100721.13;;;10.58;95.91
43125;BME280;49182;50.788;7.318;2023-02-23T11:12:19;100713.09;;;10.59;95.77
43125;BME280;49182;50.788;7.318;2023-02-23T11:14:46;100706.97;;;10.59;95.75
43125;BME280;49182;50.788;7.318;2023-02-23T11:17:25;100684.28;;;10.46;95.48
43125;BME280;49182;50.788;7.318;2023-02-23T11:19:57;100709.63;;;10.68;95.20
43125;BME280;49182;50.788;7.318;2023-02-23T11:22:24;100714.25;;;10.66;95.36
43125;BME280;49182;50.788;7.318;2023-02-23T11:25:02;100717.44;;;10.70;94.71
43125;BME280;49182;50.788;7.318;2023-02-23T11:27:37;100710.94;;;10.74;94.46
43125;BME280;49182;50.788;7.318;2023-02-23T11:30:05;100710.66;;;10.77;94.98
43125;BME280;49182;50.788;7.318;2023-02-23T11:32:33;100690.94;;;10.50;93.65
43125;BME280;49182;50.788;7.318;2023-02-23T11:35:12;100711.44;;;10.68;92.70
43125;BME280;49182;50.788;7.318;2023-02-23T11:37:39;100709.56;;;10.79;93.96
43125;BME280;49182;50.788;7.318;2023-02-23T11:40:20;100706.94;;;10.79;93.53
43125;BME280;49182;50.788;7.318;2023-02-23T11:42:52;100654.81;;;10.51;94.02
43125;BME280;49182;50.788;7.318;2023-02-23T11:45:20;100698.47;;;10.85;94.14
43125;BME280;49182;50.788;7.318;2023-02-23T11:47:48;100690.38;;;10.77;93.46
43125;BME280;49182;50.788;7.318;2023-02-23T11:50:21;100689.53;;;10.77;93.41
43125;BME280;49182;50.788;7.318;2023-02-23T11:52:54;100694.19;;;10.64;93.60
43125;BME280;49182;50.788;7.318;2023-02-23T11:55:23;100691.47;;;10.44;93.92
43125;BME280;49182;50.788;7.318;2023-02-23T11:57:50;100685.19;;;10.36;94.12
43125;BME280;49182;50.788;7.318;2023-02-23T12:00:23;100700.94;;;10.47;93.43
43125;BME280;49182;50.788;7.318;2023-02-23T12:02:53;100677.84;;;10.39;93.92
43125;BME280;49182;50.788;7.318;2023-02-23T12:05:23;100693.34;;;10.53;93.92
43125;BME280;49182;50.788;7.318;2023-02-23T12:07:54;100694.19;;;10.64;94.09
43125;BME280;49182;50.788;7.318;2023-02-23T12:10:27;100689.31;;;10.59;93.88
43125;BME280;49182;50.788;7.318;2023-02-23T12:13:02;100679.31;;;10.63;93.91
43125;BME280;49182;50.788;7.318;2023-02-23T12:15:36;100682.16;;;10.71;93.40
43125;BME280;49182;50.788;7.318;2023-02-23T12:18:13;100683.41;;;10.76;93.29
43125;BME280;49182;50.788;7.318;2023-02-23T12:20:44;100688.25;;;10.71;93.30
43125;BME280;49182;50.788;7.318;2023-02-23T12:23:17;100684.22;;;10.67;92.91
43125;BME280;49182;50.788;7.318;2023-02-23T12:25:49;100690.63;;;10.74;92.95
43125;BME280;49182;50.788;7.318;2023-02-23T12:28:25;100681.91;;;10.74;92.95
43125;BME280;49182;50.788;7.318;2023-02-23T12:30:56;100687.19;;;10.83;92.40
43125;BME280;49182;50.788;7.318;2023-02-23T12:33:27;100678.25;;;10.75;92.27
43125;BME280;49182;50.788;7.318;2023-02-23T12:35:59;100691.63;;;10.83;91.88
43125;BME280;49182;50.788;7.318;2023-02-23T12:38:32;100687.72;;;10.77;90.78
43125;BME280;49182;50.788;7.318;2023-02-23T12:41:11;100683.84;;;10.81;90.62
43125;BME280;49182;50.788;7.318;2023-02-23T12:43:39;100683.00;;;10.81;91.29
43125;BME280;49182;50.788;7.318;2023-02-23T12:46:13;100688.28;;;10.81;91.43
43125;BME280;49182;50.788;7.318;2023-02-23T12:48:47;100682.31;;;10.79;91.22
43125;BME280;49182;50.788;7.318;2023-02-23T12:51:25;100681.75;;;10.75;90.96
43125;BME280;49182;50.788;7.318;2023-02-23T12:53:53;100686.47;;;10.72;89.74
43125;BME280;49182;50.788;7.318;2023-02-23T12:56:31;100684.22;;;10.67;89.14
43125;BME280;49182;50.788;7.318;2023-02-23T12:59:09;100661.22;;;10.48;90.21
43125;BME280;49182;50.788;7.318;2023-02-23T13:01:44;100680.69;;;10.57;90.18
43125;BME280;49182;50.788;7.318;2023-02-23T13:04:29;100681.09;;;10.52;90.63
43125;BME280;49182;50.788;7.318;2023-02-23T13:07:04;100693.91;;;10.57;91.00
43125;BME280;49182;50.788;7.318;2023-02-23T13:09:47;100690.72;;;10.63;90.92